createdAt,value
2023-04-29T00:02:23.694Z,95134.84
2023-04-29T00:04:50.591Z,95133.91
2023-04-29T00:07:17.353Z,95131.19
2023-04-29T00:09:44.012Z,95126.09
2023-04-29T00:12:10.696Z,95129.13
2023-04-29T00:14:37.242Z,95121.31
2023-04-29T00:17:03.862Z,95119.25
2023-04-29T00:19:30.680Z,95115.75
2023-04-29T00:21:57.270Z,95111.41
2023-04-29T00:24:24.386Z,95118.34
2023-04-29T00:26:51.046Z,95125.22
2023-04-29T00:29:17.617Z,95115.00
2023-04-29T00:31:44.896Z,95118.06
2023-04-29T00:34:11.936Z,95124.63
2023-04-29T00:36:38.579Z,95115.69
2023-04-29T00:39:07.554Z,95116.81
2023-04-29T00:41:34.609Z,95116.34
2023-04-29T00:44:01.313Z,95110.13
2023-04-29T00:46:28.164Z,95113.97
2023-04-29T00:48:55.102Z,95123.22
2023-04-29T00:51:22.300Z,95113.38
2023-04-29T00:53:49.742Z,95119.59
2023-04-29T00:56:16.782Z,95109.84
2023-04-29T00:58:44.399Z,95116.88
2023-04-29T01:01:11.664Z,95116.44
2023-04-29T01:03:38.923Z,95116.88
2023-04-29T01:06:34.269Z,95112.56
2023-04-29T01:09:22.195Z,95112.22
2023-04-29T01:12:00.512Z,95110.50
2023-04-29T01:14:28.121Z,95109.78
2023-04-29T01:17:00.445Z,95108.31
2023-04-29T01:19:41.556Z,95113.41
2023-04-29T01:22:08.300Z,95108.91
2023-04-29T01:24:35.428Z,95108.25
2023-04-29T01:27:20.755Z,95105.97
2023-04-29T01:30:17.401Z,95104.03
2023-04-29T01:32:54.506Z,95106.75
2023-04-29T01:35:39.934Z,95104.41
2023-04-29T01:38:30.768Z,95103.91
2023-04-29T01:41:13.218Z,95103.47
2023-04-29T01:43:41.151Z,95107.31
2023-04-29T01:46:18.239Z,95108.47
2023-04-29T01:48:45.295Z,95104.13
2023-04-29T01:51:12.324Z,95104.13
2023-04-29T01:53:39.561Z,95107.19
2023-04-29T01:56:08.150Z,95106.72
2023-04-29T01:58:46.916Z,95110.56
2023-04-29T02:01:36.471Z,95104.34
2023-04-29T02:04:04.352Z,95105.88
2023-04-29T02:06:30.991Z,95098.31
2023-04-29T02:09:00.700Z,95098.31
2023-04-29T02:11:27.355Z,95103.75
2023-04-29T02:13:56.335Z,95102.16
2023-04-29T02:16:23.178Z,95101.34
2023-04-29T02:18:58.398Z,95107.94
2023-04-29T02:21:24.915Z,95106.06
2023-04-29T02:23:52.785Z,95107.44
2023-04-29T02:26:22.720Z,95094.78
2023-04-29T02:28:49.658Z,95100.69
2023-04-29T02:31:16.251Z,95096.84
2023-04-29T02:33:47.110Z,95101.97
2023-04-29T02:36:13.783Z,95099.69
2023-04-29T02:38:40.383Z,95098.25
2023-04-29T02:41:07.251Z,95094.84
2023-04-29T02:43:33.909Z,95101.19
2023-04-29T02:46:00.713Z,95100.53
2023-04-29T02:48:27.534Z,95100.31
2023-04-29T02:50:54.120Z,95102.38
2023-04-29T02:53:20.931Z,95109.88
2023-04-29T02:55:47.579Z,95106.47
2023-04-29T02:58:14.646Z,95106.59
2023-04-29T03:00:41.766Z,95106.59
2023-04-29T03:03:08.627Z,95116.38
2023-04-29T03:05:35.594Z,95116.81
2023-04-29T03:08:02.543Z,95105.94
2023-04-29T03:10:29.163Z,95114.91
2023-04-29T03:12:55.983Z,95116.03
2023-04-29T03:15:22.693Z,95110.94
2023-04-29T03:17:51.172Z,95117.50
2023-04-29T03:20:17.978Z,95112.88
2023-04-29T03:22:44.639Z,95109.69
2023-04-29T03:25:11.329Z,95106.47
2023-04-29T03:27:39.707Z,95110.34
2023-04-29T03:30:07.865Z,95110.34
2023-04-29T03:32:37.488Z,95109.88
2023-04-29T03:35:04.410Z,95114.88
2023-04-29T03:37:41.235Z,95107.03
2023-04-29T03:40:23.614Z,95108.16
2023-04-29T03:42:50.802Z,95112.16
2023-04-29T03:45:18.353Z,95107.38
2023-04-29T03:47:44.945Z,95106.25
2023-04-29T03:50:11.724Z,95104.44
2023-04-29T03:52:39.302Z,95115.31
2023-04-29T03:55:11.133Z,95106.47
2023-04-29T03:57:38.311Z,95116.69
2023-04-29T04:00:06.646Z,95110.94
2023-04-29T04:02:40.413Z,95107.19
2023-04-29T04:05:09.440Z,95110.03
2023-04-29T04:07:37.122Z,95109.38
2023-04-29T04:10:26.956Z,95111.09
2023-04-29T04:12:54.016Z,95111.19
2023-04-29T04:15:21.037Z,95107.34
2023-04-29T04:17:48.417Z,95115.69
2023-04-29T04:20:15.610Z,95111.81
2023-04-29T04:22:42.346Z,95113.09
2023-04-29T04:25:19.274Z,95119.00
2023-04-29T04:27:45.880Z,95124.44
2023-04-29T04:30:22.351Z,95120.22
2023-04-29T04:32:49.715Z,95122.16
2023-04-29T04:35:16.930Z,95130.00
2023-04-29T04:37:43.818Z,95123.88
2023-04-29T04:40:11.318Z,95132.16
2023-04-29T04:42:55.146Z,95125.25
2023-04-29T04:45:22.051Z,95129.25
2023-04-29T04:47:50.837Z,95131.75
2023-04-29T04:50:30.649Z,95133.47
2023-04-29T04:52:57.542Z,95130.50
2023-04-29T04:55:40.668Z,95135.72
2023-04-29T04:58:08.282Z,95130.38
2023-04-29T05:00:44.469Z,95132.09
2023-04-29T05:03:11.934Z,95133.47
2023-04-29T05:05:38.604Z,95131.34
2023-04-29T05:08:05.565Z,95134.63
2023-04-29T05:10:38.569Z,95141.44
2023-04-29T05:13:09.228Z,95146.66
2023-04-29T05:15:38.334Z,95136.66
2023-04-29T05:18:07.445Z,95137.25
2023-04-29T05:20:37.886Z,95146.31
2023-04-29T05:23:04.988Z,95148.47
2023-04-29T05:25:36.568Z,95144.25
2023-04-29T05:28:03.671Z,95146.75
2023-04-29T05:30:32.917Z,95146.41
2023-04-29T05:32:59.924Z,95149.59
2023-04-29T05:35:27.626Z,95152.78
2023-04-29T05:37:54.905Z,95155.16
2023-04-29T05:40:35.896Z,95157.22
2023-04-29T05:43:23.068Z,95164.25
2023-04-29T05:45:53.817Z,95160.03
2023-04-29T05:48:20.438Z,95158.22
2023-04-29T05:50:47.078Z,95165.28
2023-04-29T05:53:13.847Z,95166.53
2023-04-29T05:55:41.731Z,95171.66
2023-04-29T05:58:08.394Z,95170.16
2023-04-29T06:00:34.998Z,95170.28
2023-04-29T06:03:10.435Z,95174.25
2023-04-29T06:05:37.851Z,95175.50
2023-04-29T06:08:30.943Z,95169.78
2023-04-29T06:11:10.829Z,95179.69
2023-04-29T06:13:37.744Z,95182.97
2023-04-29T06:16:05.797Z,95184.66
2023-04-29T06:18:33.982Z,95181.34
2023-04-29T06:21:00.669Z,95190.56
2023-04-29T06:23:27.291Z,95190.31
2023-04-29T06:25:54.327Z,95190.50
2023-04-29T06:28:21.917Z,95193.78
2023-04-29T06:30:48.758Z,95186.94
2023-04-29T06:33:16.028Z,95197.94
2023-04-29T06:35:42.892Z,95205.63
2023-04-29T06:38:09.431Z,95198.78
2023-04-29T06:40:54.458Z,95198.38
2023-04-29T06:43:45.132Z,95202.22
2023-04-29T06:46:34.715Z,95192.13
2023-04-29T06:49:04.893Z,95206.03
2023-04-29T06:51:32.358Z,95199.50
2023-04-29T06:53:59.503Z,95196.28
2023-04-29T06:56:26.186Z,95203.94
2023-04-29T06:58:52.788Z,95206.38
2023-04-29T07:01:19.473Z,95209.31
2023-04-29T07:03:46.314Z,95216.53
2023-04-29T07:06:13.228Z,95211.25
2023-04-29T07:08:39.936Z,95207.06
2023-04-29T07:11:07.866Z,95212.09
2023-04-29T07:13:34.476Z,95207.78
2023-04-29T07:16:01.172Z,95216.50
2023-04-29T07:18:27.977Z,95214.22
2023-04-29T07:21:01.288Z,95225.16
2023-04-29T07:23:28.137Z,95211.22
2023-04-29T07:25:54.703Z,95214.38
2023-04-29T07:28:21.330Z,95211.00
2023-04-29T07:30:48.322Z,95217.72
2023-04-29T07:33:15.026Z,95210.72
2023-04-29T07:35:41.623Z,95213.91
2023-04-29T07:38:09.081Z,95218.56
2023-04-29T07:40:35.719Z,95215.13
2023-04-29T07:43:03.186Z,95221.41
2023-04-29T07:45:29.785Z,95222.97
2023-04-29T07:47:56.460Z,95226.06
2023-04-29T07:50:23.216Z,95215.56
2023-04-29T07:52:49.816Z,95222.31
2023-04-29T07:55:16.585Z,95222.44
2023-04-29T07:57:43.262Z,95224.44
2023-04-29T08:00:10.312Z,95230.88
2023-04-29T08:02:45.892Z,95227.50
2023-04-29T08:05:15.612Z,95228.78
2023-04-29T08:07:42.628Z,95228.91
2023-04-29T08:10:09.974Z,95235.75
2023-04-29T08:12:38.544Z,95233.75
2023-04-29T08:15:09.794Z,95233.88
2023-04-29T08:17:36.819Z,95229.34
2023-04-29T08:20:04.002Z,95236.59
2023-04-29T08:22:30.911Z,95230.84
2023-04-29T08:24:57.640Z,95232.50
2023-04-29T08:27:24.307Z,95232.56
2023-04-29T08:29:51.068Z,95247.41
2023-04-29T08:32:17.943Z,95241.63
2023-04-29T08:34:44.594Z,95245.22
2023-04-29T08:37:11.645Z,95241.88
2023-04-29T08:39:38.270Z,95242.38
2023-04-29T08:42:10.930Z,95241.69
2023-04-29T08:44:38.304Z,95242.91
2023-04-29T08:47:05.656Z,95240.63
2023-04-29T08:49:32.887Z,95235.22
2023-04-29T08:52:00.472Z,95234.59
2023-04-29T08:54:27.150Z,95224.88
2023-04-29T08:56:55.559Z,95236.66
2023-04-29T08:59:23.452Z,95231.47
2023-04-29T09:01:52.519Z,95216.09
2023-04-29T09:04:45.156Z,95223.94
2023-04-29T09:07:12.065Z,95228.19
2023-04-29T09:09:40.892Z,95231.75
2023-04-29T09:12:07.615Z,95230.09
2023-04-29T09:14:34.188Z,95228.00
2023-04-29T09:17:00.792Z,95223.66
2023-04-29T09:19:32.145Z,95219.69
2023-04-29T09:21:59.565Z,95218.91
2023-04-29T09:24:28.002Z,95218.22
2023-04-29T09:26:55.262Z,95221.06
2023-04-29T09:29:22.440Z,95213.00
2023-04-29T09:31:50.034Z,95206.16
2023-04-29T09:34:16.687Z,95203.25
2023-04-29T09:36:48.450Z,95201.91
2023-04-29T09:39:17.317Z,95194.31
2023-04-29T09:41:53.265Z,95194.50
2023-04-29T09:44:22.864Z,95192.47
2023-04-29T09:47:06.955Z,95200.09
2023-04-29T09:49:38.873Z,95203.69
2023-04-29T09:52:07.656Z,95199.75
2023-04-29T09:54:35.900Z,95204.47
2023-04-29T09:57:03.684Z,95205.59
2023-04-29T09:59:30.251Z,95211.47
2023-04-29T10:01:58.963Z,95208.63
2023-04-29T10:04:27.374Z,95212.09
2023-04-29T10:06:56.081Z,95212.03
2023-04-29T10:09:23.975Z,95204.94
2023-04-29T10:11:53.104Z,95200.59
2023-04-29T10:14:24.062Z,95193.50
2023-04-29T10:16:59.358Z,95195.81
2023-04-29T10:19:47.981Z,95196.63
2023-04-29T10:22:26.993Z,95195.50
2023-04-29T10:24:55.659Z,95194.72
2023-04-29T10:27:24.843Z,95192.88
2023-04-29T10:29:53.888Z,95186.69
2023-04-29T10:32:22.505Z,95187.13
2023-04-29T10:34:51.590Z,95178.59
2023-04-29T10:37:19.189Z,95193.25
2023-04-29T10:40:04.782Z,95193.59
2023-04-29T10:42:42.938Z,95197.41
2023-04-29T10:45:22.205Z,95190.66
2023-04-29T10:48:04.154Z,95183.56
2023-04-29T10:50:39.866Z,95190.81
2023-04-29T10:53:06.526Z,95186.75
2023-04-29T10:55:36.846Z,95195.16
2023-04-29T10:58:05.032Z,95188.78
2023-04-29T11:00:34.138Z,95189.81
2023-04-29T11:03:02.447Z,95208.09
2023-04-29T11:05:35.647Z,95196.63
2023-04-29T11:08:19.516Z,95195.66
2023-04-29T11:10:46.157Z,95190.63
2023-04-29T11:13:27.488Z,95186.66
2023-04-29T11:16:03.927Z,95182.50
2023-04-29T11:18:30.800Z,95175.06
2023-04-29T11:21:05.949Z,95181.84
2023-04-29T11:23:36.689Z,95171.69
2023-04-29T11:26:03.805Z,95173.00
2023-04-29T11:28:32.112Z,95161.09
2023-04-29T11:30:59.699Z,95164.75
2023-04-29T11:33:27.630Z,95156.91
2023-04-29T11:35:55.296Z,95166.31
2023-04-29T11:38:29.280Z,95191.84
2023-04-29T11:40:59.852Z,95180.81
2023-04-29T11:43:26.487Z,95181.84
2023-04-29T11:45:53.892Z,95186.50
2023-04-29T11:48:25.061Z,95175.50
2023-04-29T11:50:57.668Z,95183.38
2023-04-29T11:53:26.162Z,95177.22
2023-04-29T11:55:56.288Z,95179.69
2023-04-29T11:58:23.822Z,95197.47
2023-04-29T12:00:51.197Z,95182.19
2023-04-29T12:03:20.150Z,95179.78
2023-04-29T12:05:56.375Z,95178.94
2023-04-29T12:08:24.737Z,95185.94
2023-04-29T12:10:53.116Z,95196.22
2023-04-29T12:13:20.481Z,95188.00
2023-04-29T12:15:48.819Z,95187.69
2023-04-29T12:18:18.064Z,95182.16
2023-04-29T12:20:45.729Z,95189.63
2023-04-29T12:23:17.278Z,95200.22
2023-04-29T12:25:49.268Z,95193.94
2023-04-29T12:28:17.173Z,95190.41
2023-04-29T12:30:47.587Z,95183.06
2023-04-29T12:33:24.764Z,95184.31
2023-04-29T12:35:52.631Z,95184.31
2023-04-29T12:38:30.714Z,95185.47
2023-04-29T12:40:59.623Z,95184.28
2023-04-29T12:43:30.444Z,95188.19
2023-04-29T12:46:07.668Z,95190.94
2023-04-29T12:48:37.983Z,95189.00
2023-04-29T12:51:05.211Z,95192.19
2023-04-29T12:53:32.113Z,95188.00
2023-04-29T12:55:59.326Z,95190.69
2023-04-29T12:58:29.264Z,95207.63
2023-04-29T13:00:56.336Z,95184.75
2023-04-29T13:03:23.280Z,95201.25
2023-04-29T13:05:50.271Z,95201.31
2023-04-29T13:08:17.100Z,95192.69
2023-04-29T13:10:43.713Z,95199.88
2023-04-29T13:13:10.295Z,95198.28
2023-04-29T13:15:37.656Z,95188.88
2023-04-29T13:18:04.477Z,95197.97
2023-04-29T13:20:31.154Z,95189.75
2023-04-29T13:22:57.721Z,95191.75
2023-04-29T13:25:24.365Z,95186.94
2023-04-29T13:27:51.107Z,95191.22
2023-04-29T13:30:17.709Z,95192.81
2023-04-29T13:32:51.342Z,95191.59
2023-04-29T13:35:21.235Z,95197.13
2023-04-29T13:37:47.828Z,95188.84
2023-04-29T13:40:20.540Z,95184.53
2023-04-29T13:42:50.517Z,95180.22
2023-04-29T13:45:19.900Z,95190.47
2023-04-29T13:48:06.788Z,95188.97
2023-04-29T13:53:32.840Z,95193.28
2023-04-29T13:56:46.409Z,95180.28
2023-04-29T14:01:34.001Z,95186.59
2023-04-29T14:03:52.677Z,95179.50
2023-04-29T14:06:19.433Z,95192.94
2023-04-29T14:08:46.195Z,95174.44
2023-04-29T14:11:12.775Z,95178.78
2023-04-29T14:13:39.359Z,95175.59
2023-04-29T14:16:06.608Z,95175.25
2023-04-29T14:18:33.301Z,95187.50
2023-04-29T14:20:59.924Z,95182.78
2023-04-29T14:23:26.660Z,95196.19
2023-04-29T14:25:54.648Z,95194.59
2023-04-29T14:28:21.620Z,95197.00
2023-04-29T14:30:48.216Z,95196.22
2023-04-29T14:33:14.809Z,95205.31
2023-04-29T14:35:42.300Z,95203.78
2023-04-29T14:38:08.996Z,95199.09
2023-04-29T14:40:35.696Z,95208.19
2023-04-29T14:43:02.286Z,95215.34
2023-04-29T14:45:29.213Z,95219.25
2023-04-29T14:47:55.833Z,95221.25
2023-04-29T14:50:22.743Z,95211.41
2023-04-29T14:52:49.372Z,95223.22
2023-04-29T14:55:16.027Z,95222.41
2023-04-29T14:57:42.968Z,95219.25
2023-04-29T15:00:10.211Z,95231.50
2023-04-29T15:02:36.831Z,95236.22
2023-04-29T15:05:03.561Z,95243.34
2023-04-29T15:07:31.727Z,95241.34
2023-04-29T15:09:58.575Z,95234.63
2023-04-29T15:12:25.430Z,95237.41
2023-04-29T15:14:52.302Z,95234.28
2023-04-29T15:17:19.537Z,95240.19
2023-04-29T15:19:46.268Z,95239.38
2023-04-29T15:22:12.932Z,95233.88
2023-04-29T15:24:39.540Z,95235.00
2023-04-29T15:27:06.103Z,95247.63
2023-04-29T15:29:32.721Z,95247.22
2023-04-29T15:31:59.333Z,95237.66
2023-04-29T15:34:25.916Z,95251.91
2023-04-29T15:36:52.803Z,95240.88
2023-04-29T15:39:19.381Z,95246.06
2023-04-29T15:41:46.182Z,95249.25
2023-04-29T15:44:12.753Z,95260.72
2023-04-29T15:46:39.352Z,95256.38
2023-04-29T15:49:06.016Z,95265.44
2023-04-29T15:51:32.899Z,95270.88
2023-04-29T15:53:59.470Z,95278.31
2023-04-29T15:56:26.135Z,95272.69
2023-04-29T15:58:52.809Z,95275.72
2023-04-29T16:01:19.896Z,95273.22
2023-04-29T16:03:46.514Z,95283.84
2023-04-29T16:06:13.186Z,95271.50
2023-04-29T16:08:39.783Z,95286.31
2023-04-29T16:11:06.389Z,95280.63
2023-04-29T16:13:34.978Z,95282.41
2023-04-29T16:16:02.996Z,95292.94
2023-04-29T16:18:29.612Z,95292.81
2023-04-29T16:20:56.252Z,95301.00
2023-04-29T16:23:22.896Z,95302.09
2023-04-29T16:25:49.534Z,95293.84
2023-04-29T16:28:16.225Z,95304.41
2023-04-29T16:30:42.766Z,95299.66
2023-04-29T16:33:09.322Z,95303.66
2023-04-29T16:35:36.786Z,95318.19
2023-04-29T16:38:03.488Z,95317.81
2023-04-29T16:40:30.111Z,95307.75
2023-04-29T16:42:56.656Z,95312.59
2023-04-29T16:45:26.547Z,95315.78
2023-04-29T16:47:53.283Z,95314.44
2023-04-29T16:50:20.068Z,95315.59
2023-04-29T16:52:46.682Z,95317.63
2023-04-29T16:55:13.304Z,95323.44
2023-04-29T16:57:39.944Z,95330.63
2023-04-29T17:00:07.976Z,95334.28
2023-04-29T17:02:34.480Z,95330.72
2023-04-29T17:05:01.118Z,95332.56
2023-04-29T17:07:27.885Z,95329.53
2023-04-29T17:09:54.743Z,95329.66
2023-04-29T17:12:21.710Z,95337.19
2023-04-29T17:14:48.279Z,95340.81
2023-04-29T17:17:14.911Z,95341.19
2023-04-29T17:19:41.498Z,95349.47
2023-04-29T17:22:08.071Z,95347.09
2023-04-29T17:24:34.674Z,95361.66
2023-04-29T17:27:01.270Z,95354.94
2023-04-29T17:29:27.803Z,95356.41
2023-04-29T17:31:54.425Z,95358.25
2023-04-29T17:34:21.031Z,95358.06
2023-04-29T17:36:47.679Z,95363.34
2023-04-29T17:39:14.576Z,95366.97
2023-04-29T17:41:41.163Z,95371.41
2023-04-29T17:44:08.248Z,95369.59
2023-04-29T17:46:40.194Z,95376.34
2023-04-29T17:49:07.175Z,95383.53
2023-04-29T17:51:33.765Z,95392.28
2023-04-29T17:54:01.499Z,95394.38
2023-04-29T17:56:28.136Z,95389.28
2023-04-29T17:58:54.899Z,95395.28
2023-04-29T18:01:21.555Z,95401.28
2023-04-29T18:03:48.358Z,95405.78
2023-04-29T18:06:15.053Z,95415.31
2023-04-29T18:08:41.618Z,95413.19
2023-04-29T18:11:08.253Z,95415.41
2023-04-29T18:13:35.559Z,95416.84
2023-04-29T18:16:02.135Z,95425.38
2023-04-29T18:18:28.687Z,95420.38
2023-04-29T18:20:55.307Z,95421.84
2023-04-29T18:23:22.188Z,95430.25
2023-04-29T18:25:48.781Z,95433.91
2023-04-29T18:28:24.620Z,95431.34
2023-04-29T18:30:52.573Z,95430.38
2023-04-29T18:33:19.448Z,95433.41
2023-04-29T18:35:46.259Z,95428.53
2023-04-29T18:38:12.872Z,95435.72
2023-04-29T18:40:39.788Z,95444.09
2023-04-29T18:43:06.663Z,95440.75
2023-04-29T18:45:33.383Z,95452.69
2023-04-29T18:48:00.125Z,95459.56
2023-04-29T18:50:26.856Z,95459.13
2023-04-29T18:52:53.570Z,95453.91
2023-04-29T18:55:20.219Z,95464.31
2023-04-29T18:57:46.901Z,95469.72
2023-04-29T19:00:13.896Z,95468.34
2023-04-29T19:02:40.481Z,95475.22
2023-04-29T19:05:07.681Z,95482.91
2023-04-29T19:07:34.959Z,95483.47
2023-04-29T19:10:01.706Z,95491.59
2023-04-29T19:12:28.563Z,95490.38
2023-04-29T19:14:55.330Z,95499.28
2023-04-29T19:17:21.965Z,95489.81
2023-04-29T19:19:48.551Z,95497.69
2023-04-29T19:22:15.524Z,95488.56
2023-04-29T19:24:42.988Z,95489.81
2023-04-29T19:27:10.383Z,95489.03
2023-04-29T19:29:37.026Z,95491.06
2023-04-29T19:32:04.133Z,95487.44
2023-04-29T19:34:30.772Z,95490.16
2023-04-29T19:36:57.369Z,95487.34
2023-04-29T19:39:24.099Z,95493.16
2023-04-29T19:41:50.641Z,95493.06
2023-04-29T19:44:17.215Z,95501.97
2023-04-29T19:46:43.902Z,95493.28
2023-04-29T19:49:10.550Z,95497.53
2023-04-29T19:51:37.157Z,95501.38
2023-04-29T19:54:03.859Z,95503.69
2023-04-29T19:56:30.449Z,95513.28
2023-04-29T19:58:57.072Z,95519.88
2023-04-29T20:01:23.741Z,95523.97
2023-04-29T20:03:50.338Z,95518.84
2023-04-29T20:06:17.269Z,95517.63
2023-04-29T20:08:44.190Z,95527.31
2023-04-29T20:11:10.838Z,95532.69
2023-04-29T20:13:37.418Z,95527.91
2023-04-29T20:16:04.161Z,95528.59
2023-04-29T20:18:30.806Z,95529.72
2023-04-29T20:20:57.456Z,95530.88
2023-04-29T20:23:24.147Z,95530.41
2023-04-29T20:25:50.748Z,95525.28
2023-04-29T20:28:17.357Z,95528.00
2023-04-29T20:30:44.018Z,95524.47
2023-04-29T20:33:10.698Z,95528.38
2023-04-29T20:35:37.318Z,95528.38
2023-04-29T20:38:03.947Z,95531.44
2023-04-29T20:40:30.617Z,95527.91
2023-04-29T20:42:57.483Z,95523.25
2023-04-29T20:45:24.216Z,95521.66
2023-04-29T20:47:50.948Z,95528.25
2023-04-29T20:50:17.582Z,95524.72
2023-04-29T20:52:44.415Z,95538.72
2023-04-29T20:55:11.099Z,95539.88
2023-04-29T20:57:37.653Z,95539.41
2023-04-29T21:00:04.507Z,95532.69
2023-04-29T21:02:31.225Z,95531.13
2023-04-29T21:04:57.898Z,95533.75
2023-04-29T21:07:24.533Z,95535.22
2023-04-29T21:09:51.226Z,95546.34
2023-04-29T21:12:17.850Z,95550.44
2023-04-29T21:14:44.462Z,95555.66
2023-04-29T21:17:11.042Z,95551.88
2023-04-29T21:19:37.713Z,95561.81
2023-04-29T21:22:04.710Z,95556.09
2023-04-29T21:24:31.282Z,95557.31
2023-04-29T21:26:58.030Z,95562.53
2023-04-29T21:29:24.618Z,95563.09
2023-04-29T21:31:51.312Z,95563.66
2023-04-29T21:34:17.975Z,95563.53
2023-04-29T21:36:44.565Z,95570.09
2023-04-29T21:39:11.276Z,95575.13
2023-04-29T21:41:39.345Z,95581.25
2023-04-29T21:44:07.169Z,95569.88
2023-04-29T21:46:34.743Z,95558.47
2023-04-29T21:49:02.866Z,95565.09
2023-04-29T21:51:30.010Z,95559.13
2023-04-29T21:53:56.699Z,95566.88
2023-04-29T21:56:23.301Z,95562.53
2023-04-29T21:58:50.050Z,95566.41
2023-04-29T22:01:16.855Z,95562.41
2023-04-29T22:03:43.491Z,95563.53
2023-04-29T22:06:10.159Z,95561.63
2023-04-29T22:08:36.752Z,95561.16
2023-04-29T22:11:03.486Z,95560.81
2023-04-29T22:13:30.138Z,95565.94
2023-04-29T22:15:56.715Z,95560.47
2023-04-29T22:18:23.338Z,95561.28
2023-04-29T22:20:49.989Z,95553.91
2023-04-29T22:23:16.586Z,95558.91
2023-04-29T22:25:43.146Z,95558.09
2023-04-29T22:28:09.810Z,95560.47
2023-04-29T22:30:36.418Z,95566.28
2023-04-29T22:33:03.036Z,95557.19
2023-04-29T22:35:29.649Z,95557.50
2023-04-29T22:37:56.397Z,95555.13
2023-04-29T22:40:23.141Z,95560.91
2023-04-29T22:42:49.822Z,95563.97
2023-04-29T22:45:16.556Z,95559.63
2023-04-29T22:47:43.267Z,95562.38
2023-04-29T22:50:10.234Z,95565.25
2023-04-29T22:52:36.896Z,95568.31
2023-04-29T22:55:03.713Z,95563.19
2023-04-29T22:57:30.410Z,95564.19
2023-04-29T22:59:57.650Z,95567.56
2023-04-29T23:02:25.208Z,95564.38
2023-04-29T23:04:51.893Z,95569.03
2023-04-29T23:07:18.595Z,95565.19
2023-04-29T23:09:45.259Z,95561.66
2023-04-29T23:12:11.821Z,95561.16
2023-04-29T23:14:38.384Z,95561.81
2023-04-29T23:17:05.034Z,95559.91
2023-04-29T23:19:31.603Z,95561.81
2023-04-29T23:21:58.264Z,95565.34
2023-04-29T23:24:24.885Z,95569.66
2023-04-29T23:26:51.901Z,95562.63
2023-04-29T23:29:18.587Z,95559.91
2023-04-29T23:31:46.039Z,95557.63
2023-04-29T23:34:12.734Z,95557.19
2023-04-29T23:36:39.471Z,95565.81
2023-04-29T23:39:06.173Z,95553.16
2023-04-29T23:41:32.789Z,95557.69
2023-04-29T23:43:59.390Z,95553.84
2023-04-29T23:46:26.066Z,95563.81
2023-04-29T23:48:52.799Z,95558.22
2023-04-29T23:51:19.430Z,95566.75
2023-04-29T23:53:46.033Z,95565.94
2023-04-29T23:56:12.611Z,95568.22
2023-04-29T23:58:39.322Z,95569.34
